createdAt,value
2023-01-23T00:01:23.637Z,-1.52
2023-01-23T00:03:50.779Z,-1.53
2023-01-23T00:06:18.441Z,-1.52
2023-01-23T00:08:46.027Z,-1.52
2023-01-23T00:11:14.950Z,-1.51
2023-01-23T00:13:41.989Z,-1.51
2023-01-23T00:16:20.025Z,-1.51
2023-01-23T00:18:47.252Z,-1.52
2023-01-23T00:21:16.012Z,-1.54
2023-01-23T00:23:44.501Z,-1.53
2023-01-23T00:26:13.359Z,-1.52
2023-01-23T00:28:41.032Z,-1.52
2023-01-23T00:31:10.263Z,-1.52
2023-01-23T00:33:37.575Z,-1.53
2023-01-23T00:36:05.107Z,-1.52
2023-01-23T00:38:32.466Z,-1.53
2023-01-23T00:40:59.475Z,-1.53
2023-01-23T00:43:26.550Z,-1.52
2023-01-23T00:45:53.566Z,-1.53
2023-01-23T00:48:20.584Z,-1.55
2023-01-23T00:50:47.675Z,-1.56
2023-01-23T00:53:14.936Z,-1.58
2023-01-23T00:55:42.143Z,-1.58
2023-01-23T00:58:09.551Z,-1.59
2023-01-23T01:00:37.788Z,-1.59
2023-01-23T01:03:05.080Z,-1.59
2023-01-23T01:05:32.370Z,-1.59
2023-01-23T01:07:59.486Z,-1.58
2023-01-23T01:10:33.090Z,-1.58
2023-01-23T01:13:01.343Z,-1.58
2023-01-23T01:15:34.876Z,-1.58
2023-01-23T01:18:02.071Z,-1.58
2023-01-23T01:20:29.631Z,-1.59
2023-01-23T01:22:57.814Z,-1.58
2023-01-23T01:25:25.259Z,-1.58
2023-01-23T01:27:56.220Z,-1.57
2023-01-23T01:30:23.598Z,-1.57
2023-01-23T01:32:50.605Z,-1.57
2023-01-23T01:35:17.721Z,-1.56
2023-01-23T01:37:44.838Z,-1.57
2023-01-23T01:40:21.194Z,-1.55
2023-01-23T01:42:51.541Z,-1.55
2023-01-23T01:45:57.196Z,-1.54
2023-01-23T01:48:27.221Z,-1.55
2023-01-23T01:50:54.262Z,-1.55
2023-01-23T01:53:22.256Z,-1.55
2023-01-23T01:55:49.296Z,-1.55
2023-01-23T01:58:16.408Z,-1.54
2023-01-23T02:00:43.444Z,-1.53
2023-01-23T02:03:10.477Z,-1.53
2023-01-23T02:05:43.363Z,-1.53
2023-01-23T02:08:42.411Z,-1.52
2023-01-23T02:11:09.543Z,-1.51
2023-01-23T02:13:39.022Z,-1.52
2023-01-23T02:16:29.677Z,-1.51
2023-01-23T02:19:01.509Z,-1.51
2023-01-23T02:21:29.356Z,-1.50
2023-01-23T02:24:05.607Z,-1.49
2023-01-23T02:26:37.990Z,-1.50
2023-01-23T02:29:05.524Z,-1.49
2023-01-23T02:31:39.470Z,-1.49
2023-01-23T02:34:06.774Z,-1.49
2023-01-23T02:36:34.783Z,-1.47
2023-01-23T02:39:10.587Z,-1.47
2023-01-23T02:41:39.921Z,-1.48
2023-01-23T02:44:28.703Z,-1.49
2023-01-23T02:47:04.152Z,-1.47
2023-01-23T02:49:31.736Z,-1.48
2023-01-23T02:51:58.823Z,-1.48
2023-01-23T02:54:26.129Z,-1.48
2023-01-23T02:56:53.672Z,-1.48
2023-01-23T02:59:41.014Z,-1.47
2023-01-23T03:02:08.313Z,-1.46
2023-01-23T03:04:35.428Z,-1.44
2023-01-23T03:07:02.498Z,-1.43
2023-01-23T03:09:29.771Z,-1.44
2023-01-23T03:11:56.910Z,-1.44
2023-01-23T03:14:24.286Z,-1.44
2023-01-23T03:16:54.244Z,-1.44
2023-01-23T03:19:24.771Z,-1.43
2023-01-23T03:21:52.106Z,-1.42
2023-01-23T03:24:20.242Z,-1.43
2023-01-23T03:26:48.240Z,-1.44
2023-01-23T03:29:40.119Z,-1.45
2023-01-23T03:32:07.484Z,-1.44
2023-01-23T03:34:34.772Z,-1.43
2023-01-23T03:37:03.489Z,-1.42
2023-01-23T03:39:49.768Z,-1.43
2023-01-23T03:42:17.915Z,-1.44
2023-01-23T03:44:46.098Z,-1.44
2023-01-23T03:47:13.340Z,-1.44
2023-01-23T03:49:40.503Z,-1.44
2023-01-23T03:52:08.076Z,-1.43
2023-01-23T03:54:35.422Z,-1.43
2023-01-23T03:57:04.609Z,-1.43
2023-01-23T03:59:50.412Z,-1.42
2023-01-23T04:02:19.556Z,-1.43
2023-01-23T04:04:46.725Z,-1.44
2023-01-23T04:07:13.753Z,-1.43
2023-01-23T04:09:41.145Z,-1.43
2023-01-23T04:12:08.235Z,-1.42
2023-01-23T04:14:38.345Z,-1.42
2023-01-23T04:17:06.215Z,-1.42
2023-01-23T04:19:33.706Z,-1.43
2023-01-23T04:22:00.994Z,-1.43
2023-01-23T07:15:59.591Z,-2.68
2023-01-23T07:18:28.283Z,-2.62
2023-01-23T07:20:55.724Z,-2.56
2023-01-23T07:23:23.284Z,-2.51
2023-01-23T07:25:51.783Z,-2.45
2023-01-23T07:28:18.859Z,-2.38
2023-01-23T07:30:46.527Z,-2.31
2023-01-23T07:33:13.346Z,-2.24
2023-01-23T07:35:40.684Z,-2.19
2023-01-23T07:38:07.585Z,-2.14
2023-01-23T07:40:34.529Z,-2.10
2023-01-23T07:43:01.416Z,-2.07
2023-01-23T07:45:29.056Z,-2.03
2023-01-23T07:47:55.958Z,-2.00
2023-01-23T07:50:23.155Z,-1.95
2023-01-23T07:52:50.345Z,-1.92
2023-01-23T07:55:18.068Z,-1.91
2023-01-23T07:57:45.437Z,-1.91
2023-01-23T08:00:12.912Z,-1.91
2023-01-23T08:02:39.919Z,-1.91
2023-01-23T08:05:07.606Z,-1.91
2023-01-23T08:07:34.801Z,-1.89
2023-01-23T08:10:02.075Z,-1.85
2023-01-23T08:12:29.757Z,-1.81
2023-01-23T08:14:56.548Z,-1.77
2023-01-23T08:17:23.425Z,-1.75
2023-01-23T08:19:50.316Z,-1.71
2023-01-23T08:22:46.691Z,-1.69
2023-01-23T08:25:13.628Z,-1.66
2023-01-23T08:27:40.541Z,-1.61
2023-01-23T08:30:08.295Z,-1.59
2023-01-23T08:32:35.672Z,-1.54
2023-01-23T08:35:04.109Z,-1.49
2023-01-23T08:37:36.414Z,-1.47
2023-01-23T08:40:04.219Z,-1.43
2023-01-23T08:42:35.031Z,-1.37
2023-01-23T08:45:06.385Z,-1.33
2023-01-23T08:47:58.583Z,-1.28
2023-01-23T08:50:25.650Z,-1.24
2023-01-23T08:52:52.642Z,-1.19
2023-01-23T08:55:19.968Z,-1.13
2023-01-23T08:57:47.224Z,-1.08
2023-01-23T09:00:14.805Z,-1.07
2023-01-23T09:02:42.346Z,-1.09
2023-01-23T09:05:09.167Z,-1.08
2023-01-23T09:08:01.558Z,-1.06
2023-01-23T09:10:28.442Z,-1.08
2023-01-23T09:12:55.654Z,-1.10
2023-01-23T09:15:22.988Z,-1.12
2023-01-23T09:17:50.297Z,-1.15
2023-01-23T09:20:17.127Z,-1.16
2023-01-23T09:22:44.173Z,-1.15
2023-01-23T09:25:37.476Z,-1.13
2023-01-23T09:28:04.778Z,-1.12
2023-01-23T09:30:31.713Z,-1.14
2023-01-23T09:32:58.833Z,-1.16
2023-01-23T09:35:26.280Z,-1.20
2023-01-23T09:38:03.927Z,-1.23
2023-01-23T09:40:32.263Z,-1.27
2023-01-23T09:43:28.786Z,-1.30
2023-01-23T09:46:25.744Z,-1.30
2023-01-23T09:49:30.107Z,-1.32
2023-01-23T09:52:06.442Z,-1.33
2023-01-23T09:55:00.822Z,-1.33
2023-01-23T09:57:35.151Z,-1.36
2023-01-23T10:00:12.035Z,-1.39
2023-01-23T10:02:42.107Z,-1.41
2023-01-23T10:05:13.539Z,-1.43
2023-01-23T10:08:03.311Z,-1.44
2023-01-23T10:10:36.460Z,-1.49
2023-01-23T10:13:37.729Z,-1.49
2023-01-23T10:16:20.779Z,-1.45
2023-01-23T10:18:53.986Z,-1.47
2023-01-23T10:21:26.485Z,-1.50
2023-01-23T10:23:57.376Z,-1.53
2023-01-23T10:26:29.603Z,-1.53
2023-01-23T10:29:03.834Z,-1.52
2023-01-23T10:31:39.668Z,-1.50
2023-01-23T10:34:10.050Z,-1.44
2023-01-23T10:37:04.253Z,-1.42
2023-01-23T10:39:38.667Z,-1.39
2023-01-23T10:42:36.163Z,-1.36
2023-01-23T10:45:03.457Z,-1.34
2023-01-23T10:47:58.565Z,-1.34
2023-01-23T10:50:35.851Z,-1.31
2023-01-23T10:53:07.628Z,-1.33
2023-01-23T10:55:34.806Z,-1.35
2023-01-23T10:58:02.754Z,-1.35
2023-01-23T11:01:03.948Z,-1.35
2023-01-23T11:03:33.316Z,-1.35
2023-01-23T11:06:03.133Z,-1.36
2023-01-23T11:08:32.595Z,-1.36
2023-01-23T11:11:15.324Z,-1.37
2023-01-23T11:13:43.665Z,-1.40
2023-01-23T11:16:22.994Z,-1.43
2023-01-23T11:18:55.172Z,-1.45
2023-01-23T11:21:30.028Z,-1.46
2023-01-23T11:24:27.726Z,-1.46
2023-01-23T11:27:19.770Z,-1.45
2023-01-23T11:30:15.073Z,-1.46
2023-01-23T11:33:07.117Z,-1.47
2023-01-23T11:35:34.017Z,-1.48
2023-01-23T11:38:01.352Z,-1.52
2023-01-23T11:40:30.448Z,-1.55
2023-01-23T11:42:57.326Z,-1.59
2023-01-23T11:46:15.327Z,-1.61
2023-01-23T11:49:08.494Z,-1.60
2023-01-23T11:52:22.061Z,-1.63
2023-01-23T11:54:48.965Z,-1.65
2023-01-23T11:57:23.029Z,-1.67
2023-01-23T12:00:03.654Z,-1.65
2023-01-23T12:02:51.767Z,-1.65
2023-01-23T12:05:50.992Z,-1.63
2023-01-23T12:08:38.272Z,-1.61
2023-01-23T12:11:13.345Z,-1.58
2023-01-23T12:14:03.279Z,-1.57
2023-01-23T12:16:58.779Z,-1.54
2023-01-23T12:19:34.695Z,-1.48
2023-01-23T12:22:10.346Z,-1.47
2023-01-23T12:24:51.034Z,-1.45
2023-01-23T12:27:24.352Z,-1.50
2023-01-23T12:30:47.039Z,-1.54
2023-01-23T12:33:30.838Z,-1.55
2023-01-23T12:36:06.747Z,-1.54
2023-01-23T12:39:00.816Z,-1.52
2023-01-23T12:41:45.006Z,-1.48
2023-01-23T12:44:22.684Z,-1.48
2023-01-23T12:47:01.280Z,-1.52
2023-01-23T12:49:35.050Z,-1.53
2023-01-23T12:52:11.578Z,-1.53
2023-01-23T12:54:53.107Z,-1.49
2023-01-23T12:57:52.342Z,-1.45
2023-01-23T16:23:48.024Z,-2.31
2023-01-23T16:26:19.483Z,-2.23
2023-01-23T16:28:46.991Z,-2.09
2023-01-23T16:31:15.900Z,-2.00
2023-01-23T16:33:43.194Z,-1.89
2023-01-23T16:36:19.609Z,-1.79
2023-01-23T16:38:52.146Z,-1.70
2023-01-23T16:41:21.631Z,-1.67
2023-01-23T16:43:48.802Z,-1.65
2023-01-23T16:46:15.661Z,-1.63
2023-01-23T16:48:45.561Z,-1.60
2023-01-23T16:51:16.827Z,-1.51
2023-01-23T16:53:44.708Z,-1.43
2023-01-23T16:56:19.625Z,-1.40
2023-01-23T16:58:46.895Z,-1.42
2023-01-23T17:01:15.933Z,-1.44
2023-01-23T17:03:43.526Z,-1.44
2023-01-23T17:06:36.836Z,-1.39
2023-01-23T17:09:03.746Z,-1.32
2023-01-23T17:11:36.225Z,-1.31
2023-01-23T17:14:35.916Z,-1.37
2023-01-23T17:17:07.892Z,-1.40
2023-01-23T17:19:39.497Z,-1.42
2023-01-23T17:22:07.020Z,-1.38
2023-01-23T17:24:59.754Z,-1.36
2023-01-23T17:27:26.846Z,-1.38
2023-01-23T17:29:53.929Z,-1.40
2023-01-23T17:32:42.732Z,-1.41
2023-01-23T17:35:27.475Z,-1.42
2023-01-23T17:40:49.502Z,-1.49
2023-01-23T17:43:20.632Z,-1.52
2023-01-23T17:45:49.775Z,-1.58
2023-01-23T17:48:23.688Z,-1.62
2023-01-23T17:50:50.833Z,-1.66
2023-01-23T17:53:18.959Z,-1.68
2023-01-23T17:55:48.680Z,-1.71
2023-01-23T17:58:16.577Z,-1.73
2023-01-23T18:00:44.303Z,-1.74
2023-01-23T18:03:12.684Z,-1.74
2023-01-23T18:05:43.640Z,-1.74
2023-01-23T18:08:14.926Z,-1.74
2023-01-23T18:10:44.710Z,-1.73
2023-01-23T18:13:36.926Z,-1.74
2023-01-23T18:16:04.230Z,-1.74
2023-01-23T18:19:06.267Z,-1.77
2023-01-23T18:21:35.115Z,-1.79
2023-01-23T18:24:03.279Z,-1.81
2023-01-23T18:27:11.375Z,-1.81
2023-01-23T18:29:53.734Z,-1.82
2023-01-23T18:32:48.364Z,-1.80
2023-01-23T18:35:27.118Z,-1.81
2023-01-23T18:38:32.561Z,-1.82
2023-01-23T18:41:18.807Z,-1.83
2023-01-23T18:44:22.593Z,-1.84
2023-01-23T18:46:50.275Z,-1.84
2023-01-23T18:49:32.136Z,-1.85
2023-01-23T18:52:08.368Z,-1.85
2023-01-23T18:54:43.994Z,-1.84
2023-01-23T18:57:20.700Z,-1.84
2023-01-23T19:00:22.453Z,-1.85
2023-01-23T19:03:17.337Z,-1.84
2023-01-23T19:05:45.417Z,-1.85
2023-01-23T19:08:27.718Z,-1.86
2023-01-23T19:11:07.298Z,-1.87
2023-01-23T19:13:49.330Z,-1.87
2023-01-23T19:16:29.140Z,-1.88
2023-01-23T19:19:22.900Z,-1.90
2023-01-23T19:21:49.846Z,-1.93
2023-01-23T19:24:23.342Z,-1.94
2023-01-23T19:26:50.395Z,-1.96
2023-01-23T19:29:22.712Z,-1.99
2023-01-23T19:32:04.106Z,-2.00
2023-01-23T19:34:33.707Z,-2.01
2023-01-23T19:37:10.695Z,-2.01
2023-01-23T19:39:38.356Z,-2.02
2023-01-23T19:42:05.631Z,-2.03
2023-01-23T19:44:33.244Z,-2.05
2023-01-23T19:47:04.935Z,-2.07
2023-01-23T19:49:32.710Z,-2.09
2023-01-23T19:51:59.894Z,-2.11
2023-01-23T19:54:27.928Z,-2.12
2023-01-23T19:56:54.768Z,-2.11
2023-01-23T19:59:23.822Z,-2.09
2023-01-23T20:01:51.070Z,-2.09
2023-01-23T20:04:22.718Z,-2.10
2023-01-23T20:06:51.284Z,-2.10
2023-01-23T20:09:18.285Z,-2.11
2023-01-23T20:11:46.472Z,-2.11
2023-01-23T20:14:13.638Z,-2.14
2023-01-23T20:16:42.313Z,-2.15
2023-01-23T20:19:14.081Z,-2.15
2023-01-23T20:21:40.952Z,-2.16
2023-01-23T20:24:08.379Z,-2.15
2023-01-23T20:26:39.366Z,-2.14
2023-01-23T20:29:10.875Z,-2.13
2023-01-23T20:31:37.802Z,-2.14
2023-01-23T20:34:04.977Z,-2.13
2023-01-23T20:36:32.087Z,-2.13
2023-01-23T20:38:59.038Z,-2.13
2023-01-23T20:41:25.963Z,-2.12
2023-01-23T20:43:53.222Z,-2.13
2023-01-23T20:46:20.043Z,-2.13
2023-01-23T20:48:47.004Z,-2.12
2023-01-23T20:51:17.875Z,-2.12
2023-01-23T20:53:44.932Z,-2.10
2023-01-23T20:56:16.570Z,-2.09
2023-01-23T20:59:04.204Z,-2.08
2023-01-23T21:01:55.588Z,-2.05
2023-01-23T21:04:25.181Z,-2.03
2023-01-23T21:06:52.939Z,-2.02
2023-01-23T21:09:20.006Z,-2.01
2023-01-23T21:11:49.398Z,-1.99
2023-01-23T21:14:16.639Z,-1.98
2023-01-23T21:16:43.583Z,-1.98
2023-01-23T21:19:10.685Z,-1.96
2023-01-23T21:21:37.786Z,-1.95
2023-01-23T21:24:05.221Z,-1.94
2023-01-23T21:26:34.488Z,-1.96
2023-01-23T21:29:01.704Z,-1.96
2023-01-23T21:31:32.333Z,-1.98
2023-01-23T21:34:05.760Z,-1.98
2023-01-23T21:36:33.334Z,-1.98
2023-01-23T21:39:00.547Z,-1.98
2023-01-23T21:41:28.412Z,-1.98
2023-01-23T21:43:55.453Z,-1.96
2023-01-23T21:46:22.638Z,-1.95
2023-01-23T21:48:51.786Z,-1.95
2023-01-23T21:51:20.262Z,-1.93
2023-01-23T21:53:48.273Z,-1.91
2023-01-23T21:56:17.214Z,-1.89
2023-01-23T21:58:44.462Z,-1.88
